createdAt,value
2023-02-11T00:00:29.220Z,49.75
2023-02-11T00:03:32.196Z,48.90
2023-02-11T00:06:35.665Z,53.13
2023-02-11T00:09:38.444Z,51.20
2023-02-11T00:12:41.137Z,50.03
2023-02-11T00:15:43.934Z,54.55
2023-02-11T00:18:46.708Z,42.60
2023-02-11T00:21:50.175Z,47.50
2023-02-11T00:24:52.745Z,46.35
2023-02-11T00:27:55.570Z,58.60
2023-02-11T00:30:58.692Z,51.53
2023-02-11T00:34:01.859Z,46.87
2023-02-11T00:37:04.936Z,48.80
2023-02-11T00:40:08.375Z,47.40
2023-02-11T00:43:11.002Z,42.45
2023-02-11T00:46:14.494Z,43.40
2023-02-11T00:49:17.527Z,46.67
2023-02-11T00:52:21.482Z,51.50
2023-02-11T00:55:24.039Z,41.67
2023-02-11T00:58:27.574Z,44.40
2023-02-11T01:01:30.371Z,44.55
2023-02-11T01:04:33.428Z,45.77
2023-02-11T01:07:35.974Z,51.55
2023-02-11T01:10:39.030Z,45.30
2023-02-11T01:13:42.217Z,45.20
2023-02-11T01:16:45.171Z,42.40
2023-02-11T01:19:49.227Z,50.77
2023-02-11T01:22:52.179Z,43.60
2023-02-11T01:25:54.763Z,44.22
2023-02-11T01:29:00.054Z,54.90
2023-02-11T01:32:03.476Z,47.30
2023-02-11T01:35:07.081Z,47.00
2023-02-11T01:38:21.106Z,42.38
2023-02-11T01:41:24.029Z,47.10
2023-02-11T01:44:36.524Z,43.03
2023-02-11T01:47:39.393Z,42.70
2023-02-11T01:50:43.472Z,39.20
2023-02-11T01:54:05.102Z,42.75
2023-02-11T01:57:23.383Z,38.65
2023-02-11T02:00:36.246Z,36.85
2023-02-11T02:03:42.862Z,35.80
2023-02-11T02:06:56.562Z,36.80
2023-02-11T02:10:04.179Z,38.78
2023-02-11T02:13:06.758Z,34.85
2023-02-11T02:16:14.682Z,37.25
2023-02-11T02:19:42.125Z,39.45
2023-02-11T02:22:58.663Z,42.73
2023-02-11T02:26:49.281Z,39.15
2023-02-11T02:30:14.103Z,41.20
2023-02-11T02:33:47.862Z,38.08
2023-02-11T02:37:02.621Z,31.55
2023-02-11T02:40:11.980Z,39.37
2023-02-11T02:43:15.645Z,43.55
2023-02-11T02:46:24.277Z,36.72
2023-02-11T02:49:27.308Z,36.10
2023-02-11T02:52:42.159Z,41.28
2023-02-11T02:56:09.934Z,44.43
2023-02-11T02:59:22.733Z,45.17
2023-02-11T03:02:36.632Z,37.10
2023-02-11T03:06:00.739Z,39.08
2023-02-11T03:09:14.918Z,38.03
2023-02-11T03:12:17.804Z,37.70
2023-02-11T03:15:21.418Z,37.03
2023-02-11T03:18:27.585Z,38.00
2023-02-11T03:21:33.251Z,37.83
2023-02-11T03:24:38.124Z,40.50
2023-02-11T03:27:43.413Z,35.90
2023-02-11T03:30:50.421Z,37.53
2023-02-11T03:34:22.605Z,42.33
2023-02-11T03:37:45.925Z,41.40
2023-02-11T03:40:50.060Z,35.70
2023-02-11T03:43:55.804Z,40.37
2023-02-11T03:46:59.075Z,38.22
2023-02-11T03:50:05.293Z,42.20
2023-02-11T03:53:08.201Z,41.60
2023-02-11T03:56:14.955Z,37.63
2023-02-11T03:59:17.901Z,40.50
2023-02-11T04:02:22.501Z,38.80
2023-02-11T04:05:25.499Z,40.65
2023-02-11T04:08:28.246Z,42.00
2023-02-11T04:11:31.069Z,37.92
2023-02-11T04:14:33.744Z,37.20
2023-02-11T04:17:36.823Z,39.90
2023-02-11T04:20:39.550Z,39.75
2023-02-11T04:23:42.673Z,36.70
2023-02-11T04:26:45.533Z,49.08
2023-02-11T04:29:48.802Z,47.53
2023-02-11T04:32:51.348Z,43.67
2023-02-11T04:35:54.246Z,42.28
2023-02-11T04:38:57.011Z,43.28
2023-02-11T04:42:00.053Z,44.03
2023-02-11T04:45:02.812Z,41.57
2023-02-11T04:48:05.706Z,51.83
2023-02-11T04:51:08.620Z,53.58
2023-02-11T04:54:11.979Z,46.67
2023-02-11T04:57:14.455Z,43.70
2023-02-11T05:00:17.726Z,40.50
2023-02-11T05:03:20.578Z,42.78
2023-02-11T05:06:23.460Z,42.03
2023-02-11T05:09:26.042Z,38.20
2023-02-11T05:12:28.915Z,42.62
2023-02-11T05:15:31.415Z,35.37
2023-02-11T05:18:34.770Z,40.53
2023-02-11T05:21:37.409Z,34.28
2023-02-11T05:24:40.534Z,39.13
2023-02-11T05:27:43.113Z,40.10
2023-02-11T05:30:45.975Z,39.80
2023-02-11T05:33:48.714Z,48.33
2023-02-11T05:36:51.502Z,47.90
2023-02-11T05:39:54.265Z,47.50
2023-02-11T05:42:57.082Z,42.62
2023-02-11T05:45:59.690Z,44.00
2023-02-11T05:49:02.654Z,52.03
2023-02-11T05:52:05.653Z,42.88
2023-02-11T05:55:08.732Z,51.83
2023-02-11T05:58:11.268Z,50.45
2023-02-11T06:01:14.146Z,45.97
2023-02-11T06:04:16.939Z,41.13
2023-02-11T06:07:19.839Z,46.35
2023-02-11T06:10:22.892Z,40.67
2023-02-11T06:13:25.477Z,49.15
2023-02-11T06:16:28.766Z,51.90
2023-02-11T06:19:31.493Z,45.47
2023-02-11T06:22:35.092Z,47.47
2023-02-11T06:25:37.885Z,44.92
2023-02-11T06:28:42.064Z,36.60
2023-02-11T06:31:44.865Z,37.00
2023-02-11T06:34:47.635Z,40.92
2023-02-11T06:37:50.212Z,43.83
2023-02-11T06:40:53.097Z,43.65
2023-02-11T06:43:55.586Z,46.72
2023-02-11T06:46:58.451Z,43.83
2023-02-11T06:50:00.988Z,40.15
2023-02-11T06:53:03.937Z,45.08
2023-02-11T06:56:09.652Z,41.85
2023-02-11T06:59:16.683Z,44.13
2023-02-11T07:02:21.000Z,43.07
2023-02-11T07:05:24.134Z,46.08
2023-02-11T07:08:26.982Z,43.72
2023-02-11T07:11:30.090Z,48.87
2023-02-11T07:14:32.935Z,49.45
2023-02-11T07:17:37.997Z,44.10
2023-02-11T07:20:41.824Z,52.38
2023-02-11T07:23:45.380Z,49.38
2023-02-11T07:26:47.873Z,52.62
2023-02-11T07:29:50.791Z,61.47
2023-02-11T07:32:53.761Z,64.40
2023-02-11T07:36:00.555Z,80.03
2023-02-11T07:39:04.024Z,80.87
2023-02-11T07:42:06.915Z,71.10
2023-02-11T07:45:09.875Z,58.95
2023-02-11T07:48:12.687Z,53.10
2023-02-11T07:51:21.012Z,54.28
2023-02-11T07:54:24.437Z,48.05
2023-02-11T07:57:27.521Z,53.08
2023-02-11T08:00:30.675Z,57.47
2023-02-11T08:03:34.949Z,65.93
2023-02-11T08:06:41.496Z,54.88
2023-02-11T08:09:44.611Z,60.65
2023-02-11T08:12:47.430Z,60.45
2023-02-11T08:15:50.513Z,57.95
2023-02-11T08:18:53.796Z,70.43
2023-02-11T08:21:57.208Z,61.70
2023-02-11T08:24:59.798Z,56.17
2023-02-11T08:28:03.037Z,55.83
2023-02-11T08:31:10.644Z,52.15
2023-02-11T08:34:14.945Z,58.37
2023-02-11T08:37:17.796Z,64.65
2023-02-11T08:40:21.145Z,53.92
2023-02-11T08:43:23.623Z,53.08
2023-02-11T08:46:27.245Z,52.00
2023-02-11T08:49:30.831Z,55.30
2023-02-11T08:52:33.807Z,49.97
2023-02-11T08:55:36.341Z,54.90
2023-02-11T08:58:39.194Z,47.97
2023-02-11T09:01:42.003Z,48.75
2023-02-11T09:04:44.934Z,42.43
2023-02-11T09:07:47.413Z,49.63
2023-02-11T09:10:50.436Z,44.72
2023-02-11T09:13:54.501Z,48.67
2023-02-11T09:16:57.649Z,44.88
2023-02-11T09:20:02.534Z,42.33
2023-02-11T09:23:06.975Z,45.17
2023-02-11T09:26:13.929Z,50.65
2023-02-11T09:29:16.811Z,45.00
2023-02-11T09:32:19.496Z,46.75
2023-02-11T09:35:23.285Z,48.73
2023-02-11T09:38:25.896Z,47.22
2023-02-11T09:41:50.257Z,51.35
2023-02-11T09:44:53.026Z,44.25
2023-02-11T09:47:58.316Z,51.67
2023-02-11T09:51:01.740Z,47.00
2023-02-11T09:54:11.663Z,50.25
2023-02-11T09:57:26.773Z,48.30
2023-02-11T10:00:40.090Z,40.50
2023-02-11T10:04:11.604Z,40.08
2023-02-11T10:07:21.717Z,44.43
2023-02-11T10:10:47.923Z,41.50
2023-02-11T10:13:56.944Z,41.25
2023-02-11T10:17:17.190Z,38.58
2023-02-11T10:20:35.503Z,43.85
2023-02-11T10:23:41.486Z,41.83
2023-02-11T10:26:45.426Z,42.33
2023-02-11T10:29:53.533Z,46.25
2023-02-11T10:33:22.372Z,41.53
2023-02-11T10:36:34.347Z,44.22
2023-02-11T10:39:37.005Z,43.77
2023-02-11T10:42:42.315Z,44.03
2023-02-11T10:45:47.035Z,42.53
2023-02-11T10:48:53.859Z,50.00
2023-02-11T10:52:12.604Z,44.90
2023-02-11T10:55:20.942Z,46.33
2023-02-11T10:58:27.165Z,41.63
2023-02-11T11:01:46.302Z,43.58
2023-02-11T11:04:48.946Z,42.53
2023-02-11T11:07:57.523Z,44.05
2023-02-11T11:11:07.362Z,43.13
2023-02-11T11:14:19.711Z,44.42
2023-02-11T11:17:22.201Z,40.10
2023-02-11T11:20:29.120Z,42.45
2023-02-11T11:23:32.285Z,36.65
2023-02-11T11:26:46.641Z,40.10
2023-02-11T11:29:52.025Z,39.15
2023-02-11T11:32:55.146Z,50.80
2023-02-11T11:35:59.874Z,38.78
2023-02-11T11:39:15.614Z,41.50
2023-02-11T11:42:39.248Z,41.20
2023-02-11T11:45:59.568Z,37.22
2023-02-11T11:49:25.726Z,36.55
2023-02-11T11:52:45.475Z,35.13
2023-02-11T11:55:59.591Z,53.63
2023-02-11T11:59:06.693Z,33.73
2023-02-11T12:02:34.229Z,36.40
2023-02-11T12:06:07.764Z,37.55
2023-02-11T12:09:55.279Z,35.58
2023-02-11T12:13:12.427Z,34.58
2023-02-11T12:16:25.215Z,32.37
2023-02-11T12:19:38.660Z,36.08
2023-02-11T12:23:02.323Z,28.65
2023-02-11T12:26:11.003Z,32.58
2023-02-11T12:29:22.732Z,33.50
2023-02-11T12:33:03.249Z,34.60
2023-02-11T12:36:23.035Z,34.30
2023-02-11T12:39:47.744Z,35.78
2023-02-11T12:43:16.710Z,38.45
2023-02-11T12:46:28.359Z,36.72
2023-02-11T12:49:37.582Z,32.63
2023-02-11T12:52:59.225Z,32.30
2023-02-11T12:56:06.731Z,35.25
2023-02-11T12:59:17.448Z,34.10
2023-02-11T13:02:32.298Z,32.92
2023-02-11T13:05:42.744Z,30.77
2023-02-11T13:08:50.491Z,35.13
2023-02-11T13:11:55.674Z,32.60
2023-02-11T13:15:03.918Z,34.08
2023-02-11T13:18:25.786Z,32.85
2023-02-11T13:21:43.126Z,36.77
2023-02-11T13:25:08.356Z,31.85
2023-02-11T13:28:41.448Z,32.53
2023-02-11T13:31:56.680Z,32.67
2023-02-11T13:35:01.262Z,31.85
2023-02-11T13:38:28.969Z,35.20
2023-02-11T13:41:32.894Z,27.05
2023-02-11T13:44:35.784Z,31.10
2023-02-11T13:47:38.608Z,33.08
2023-02-11T13:50:48.209Z,31.23
2023-02-11T13:53:56.310Z,31.53
2023-02-11T13:57:21.312Z,32.67
2023-02-11T14:00:39.062Z,31.30
2023-02-11T14:04:39.440Z,33.20
2023-02-11T14:08:29.740Z,30.70
2023-02-11T14:11:32.757Z,29.00
2023-02-11T14:15:00.340Z,27.58
2023-02-11T14:18:43.774Z,25.17
2023-02-11T14:21:46.993Z,29.45
2023-02-11T14:24:58.884Z,27.27
2023-02-11T14:28:12.899Z,28.97
2023-02-11T14:31:44.022Z,29.67
2023-02-11T14:35:31.761Z,26.87
2023-02-11T14:38:52.973Z,24.37
2023-02-11T14:41:56.211Z,24.05
2023-02-11T14:45:04.983Z,28.37
2023-02-11T14:48:30.122Z,26.35
2023-02-11T14:51:36.799Z,22.85
2023-02-11T14:54:41.002Z,22.17
2023-02-11T14:57:45.750Z,24.23
2023-02-11T15:00:51.541Z,24.47
2023-02-11T15:03:58.757Z,38.20
2023-02-11T15:07:05.770Z,23.45
2023-02-11T15:10:28.585Z,27.60
2023-02-11T15:13:32.063Z,24.90
2023-02-11T15:16:35.225Z,28.57
2023-02-11T15:19:41.223Z,27.30
2023-02-11T15:22:46.285Z,25.83
2023-02-11T15:25:55.841Z,26.42
2023-02-11T15:28:59.855Z,24.45
2023-02-11T15:32:17.747Z,24.13
2023-02-11T15:35:22.174Z,29.00
2023-02-11T15:38:24.882Z,22.37
2023-02-11T15:41:38.623Z,22.95
2023-02-11T15:44:41.471Z,26.48
2023-02-11T15:47:53.912Z,28.60
2023-02-11T15:51:00.536Z,32.03
2023-02-11T15:54:07.920Z,30.02
2023-02-11T15:57:10.831Z,27.05
2023-02-11T16:00:18.927Z,33.05
2023-02-11T16:03:24.524Z,33.23
2023-02-11T16:06:40.317Z,31.52
2023-02-11T16:09:43.613Z,29.48
2023-02-11T16:13:19.173Z,33.08
2023-02-11T16:16:24.544Z,30.42
2023-02-11T16:19:28.541Z,43.10
2023-02-11T16:22:35.423Z,35.22
2023-02-11T16:25:38.198Z,32.97
2023-02-11T16:28:41.830Z,36.50
2023-02-11T16:31:47.071Z,31.02
2023-02-11T16:34:51.054Z,36.40
2023-02-11T16:37:54.934Z,37.85
2023-02-11T16:40:58.350Z,34.70
2023-02-11T16:44:01.056Z,39.33
2023-02-11T16:47:05.976Z,39.63
2023-02-11T16:50:11.908Z,34.83
2023-02-11T16:53:20.041Z,34.90
2023-02-11T16:56:22.872Z,36.80
2023-02-11T16:59:25.965Z,37.90
2023-02-11T17:02:31.699Z,41.33
2023-02-11T17:05:49.418Z,38.17
2023-02-11T17:08:57.138Z,40.17
2023-02-11T17:12:00.444Z,38.17
2023-02-11T17:15:04.890Z,37.60
2023-02-11T17:18:12.429Z,37.90
2023-02-11T17:21:15.674Z,41.37
2023-02-11T17:24:20.269Z,46.92
2023-02-11T17:27:23.374Z,44.38
2023-02-11T17:30:26.578Z,46.88
2023-02-11T17:33:29.482Z,44.83
2023-02-11T17:36:33.421Z,46.97
2023-02-11T17:39:40.007Z,42.35
2023-02-11T17:42:43.199Z,39.22
2023-02-11T17:45:46.022Z,40.58
2023-02-11T17:48:49.307Z,41.42
2023-02-11T17:51:51.874Z,40.37
2023-02-11T17:54:55.262Z,43.58
2023-02-11T17:57:57.928Z,41.75
2023-02-11T18:01:01.040Z,39.70
2023-02-11T18:04:04.688Z,36.22
2023-02-11T18:07:07.848Z,38.33
2023-02-11T18:10:11.712Z,42.22
2023-02-11T18:13:14.404Z,42.35
2023-02-11T18:16:17.559Z,39.38
2023-02-11T18:19:20.827Z,44.42
2023-02-11T18:22:24.686Z,39.57
2023-02-11T18:25:27.270Z,42.58
2023-02-11T18:28:30.650Z,45.92
2023-02-11T18:31:35.375Z,53.30
2023-02-11T18:34:40.787Z,48.70
2023-02-11T18:37:43.570Z,44.13
2023-02-11T18:40:47.559Z,34.63
2023-02-11T18:43:50.466Z,65.87
2023-02-11T18:46:54.144Z,74.80
2023-02-11T18:49:56.859Z,69.12
2023-02-11T18:53:02.321Z,184.23
2023-02-11T18:56:14.398Z,73.65
2023-02-11T18:59:17.967Z,56.53
2023-02-11T19:02:20.998Z,37.45
2023-02-11T19:05:28.730Z,44.80
2023-02-11T19:08:32.190Z,46.63
2023-02-11T19:11:49.923Z,43.65
2023-02-11T19:14:52.952Z,39.45
2023-02-11T19:17:56.433Z,43.65
2023-02-11T19:20:59.500Z,39.25
2023-02-11T19:24:07.694Z,45.63
2023-02-11T19:27:13.366Z,43.72
2023-02-11T19:30:22.795Z,34.85
2023-02-11T19:33:42.842Z,33.75
2023-02-11T19:36:48.631Z,33.63
2023-02-11T19:39:58.274Z,35.30
2023-02-11T19:43:02.143Z,39.95
2023-02-11T19:46:07.034Z,39.05
2023-02-11T19:49:13.018Z,32.83
2023-02-11T19:52:15.648Z,37.92
2023-02-11T19:55:18.931Z,35.83
2023-02-11T19:58:21.739Z,33.38
2023-02-11T20:01:25.977Z,35.83
2023-02-11T20:04:32.121Z,38.17
2023-02-11T20:07:35.356Z,40.30
2023-02-11T20:10:39.040Z,33.87
2023-02-11T20:13:42.288Z,41.00
2023-02-11T20:16:49.492Z,35.20
2023-02-11T20:19:53.473Z,36.10
2023-02-11T20:22:58.584Z,35.75
2023-02-11T20:26:15.498Z,30.27
2023-02-11T20:29:18.840Z,32.45
2023-02-11T20:32:21.705Z,34.72
2023-02-11T20:35:28.034Z,28.77
2023-02-11T20:38:30.903Z,36.97
2023-02-11T20:41:35.908Z,29.43
2023-02-11T20:44:38.983Z,31.37
2023-02-11T20:47:42.545Z,30.80
2023-02-11T20:50:48.366Z,29.25
2023-02-11T20:53:52.539Z,32.70
2023-02-11T20:56:56.911Z,27.83
2023-02-11T21:00:00.271Z,31.05
2023-02-11T21:03:04.704Z,34.80
2023-02-11T21:06:08.460Z,33.38
2023-02-11T21:09:14.284Z,48.67
2023-02-11T21:12:17.433Z,36.73
2023-02-11T21:15:20.527Z,32.28
2023-02-11T21:18:23.866Z,30.00
2023-02-11T21:21:27.117Z,28.33
2023-02-11T21:24:32.987Z,27.80
2023-02-11T21:27:36.320Z,33.03
2023-02-11T21:30:40.525Z,30.60
2023-02-11T21:33:43.457Z,30.30
2023-02-11T21:36:46.617Z,37.53
2023-02-11T21:39:50.011Z,33.47
2023-02-11T21:42:53.775Z,28.60
2023-02-11T21:45:56.651Z,26.42
2023-02-11T21:49:00.519Z,30.88
2023-02-11T21:52:03.252Z,36.70
2023-02-11T21:55:06.795Z,32.42
2023-02-11T21:58:10.495Z,32.30
2023-02-11T22:01:20.689Z,35.63
2023-02-11T22:04:23.723Z,32.50
2023-02-11T22:07:28.088Z,31.90
2023-02-11T22:10:31.133Z,33.47
2023-02-11T22:13:34.362Z,32.13
2023-02-11T22:16:37.491Z,28.75
2023-02-11T22:19:40.198Z,34.40
2023-02-11T22:22:43.229Z,32.38
2023-02-11T22:25:45.826Z,28.95
2023-02-11T22:28:49.874Z,34.40
2023-02-11T22:31:52.486Z,30.25
2023-02-11T22:34:55.389Z,32.20
2023-02-11T22:37:58.042Z,29.87
2023-02-11T22:41:06.032Z,34.65
2023-02-11T22:44:09.085Z,30.27
2023-02-11T22:47:12.056Z,30.75
2023-02-11T22:50:14.633Z,29.77
2023-02-11T22:53:17.569Z,27.80
2023-02-11T22:56:20.643Z,30.30
2023-02-11T22:59:23.699Z,30.13
2023-02-11T23:02:26.322Z,28.27
2023-02-11T23:05:29.444Z,29.52
2023-02-11T23:08:33.057Z,30.20
2023-02-11T23:11:36.058Z,31.02
2023-02-11T23:14:38.781Z,30.77
2023-02-11T23:17:41.657Z,30.25
2023-02-11T23:20:44.750Z,30.37
2023-02-11T23:23:49.298Z,26.95
2023-02-11T23:26:51.919Z,29.37
2023-02-11T23:29:57.896Z,29.30
2023-02-11T23:33:00.533Z,29.52
2023-02-11T23:36:03.579Z,33.17
2023-02-11T23:39:06.236Z,28.95
2023-02-11T23:42:09.320Z,27.87
2023-02-11T23:45:12.221Z,26.03
2023-02-11T23:48:15.240Z,33.92
2023-02-11T23:51:18.165Z,29.20
2023-02-11T23:54:21.019Z,27.30
2023-02-11T23:57:23.662Z,29.77
